Ashby, Nebraska
Current Conditions -  °F | °C
As of 2:53 PM on Wednesday 22 Oct 2014 (Local Time) from KAIA Reporting Station
Clear Clear  
Wind Chill: 17°   Ceiling: Unl
Heat Index: 17°   Visibility: 10mi
Dew Point:   Wind: 9mph
Humidity: 33%   Direction: 310°NW
Pressure: 30.04"   Gusts: NA
Location:  42.02°N, 101.93°W
Report Text: KAIA 222053Z AUTO 31008KT 10SM CLR 17/01 A3004 RMK AO2 SLP147 T01720006 56008
Loading
Personal Weather Stations






























Interactive Weather Map
Tropical Storm Tracking
New forecast layout! Learn more

10-Day Weather Forecast

Advertisements
Track Severe Weather on mobile